createdAt,value
2022-11-22T00:00:22.190Z,3.45
2022-11-22T00:02:51.690Z,2.42
2022-11-22T00:05:21.875Z,3.55
2022-11-22T00:07:51.438Z,4.07
2022-11-22T00:10:21.392Z,3.90
2022-11-22T00:12:51.367Z,3.55
2022-11-22T00:15:20.939Z,2.28
2022-11-22T00:17:50.862Z,5.82
2022-11-22T00:20:20.462Z,2.42
2022-11-22T00:22:49.887Z,4.38
2022-11-22T00:25:19.342Z,2.85
2022-11-22T00:27:48.758Z,3.42
2022-11-22T00:30:18.869Z,2.78
2022-11-22T00:32:48.886Z,3.80
2022-11-22T00:35:18.982Z,2.95
2022-11-22T00:37:48.927Z,3.00
2022-11-22T00:40:18.484Z,4.50
2022-11-22T00:42:48.381Z,3.05
2022-11-22T00:45:18.808Z,3.25
2022-11-22T00:47:48.954Z,5.18
2022-11-22T00:50:18.482Z,4.45
2022-11-22T00:52:48.465Z,6.07
2022-11-22T00:55:18.566Z,3.90
2022-11-22T00:57:48.511Z,4.65
2022-11-22T01:00:18.454Z,4.35
2022-11-22T01:02:48.708Z,11.93
2022-11-22T01:05:21.663Z,9.43
2022-11-22T01:07:51.379Z,9.15
2022-11-22T01:10:22.403Z,10.85
2022-11-22T01:12:51.926Z,8.32
2022-11-22T01:15:21.923Z,7.72
2022-11-22T01:17:51.431Z,5.35
2022-11-22T01:20:25.459Z,12.85
2022-11-22T01:22:55.026Z,7.82
2022-11-22T01:25:24.906Z,5.25
2022-11-22T01:27:54.832Z,5.85
2022-11-22T01:30:24.797Z,7.30
2022-11-22T01:32:54.808Z,12.85
2022-11-22T01:35:24.695Z,7.30
2022-11-22T01:37:54.264Z,6.20
2022-11-22T01:40:24.225Z,6.80
2022-11-22T01:42:58.135Z,6.30
2022-11-22T01:45:33.555Z,5.50
2022-11-22T01:48:17.423Z,7.10
2022-11-22T01:50:48.883Z,8.07
2022-11-22T01:53:23.660Z,7.30
2022-11-22T01:55:53.194Z,7.30
2022-11-22T01:58:23.074Z,6.68
2022-11-22T02:00:53.036Z,9.15
2022-11-22T02:03:22.956Z,7.47
2022-11-22T02:05:52.550Z,7.35
2022-11-22T02:08:21.953Z,8.88
2022-11-22T02:10:53.507Z,10.77
2022-11-22T02:13:24.089Z,7.05
2022-11-22T02:15:53.807Z,6.10
2022-11-22T02:18:23.633Z,7.50
2022-11-22T02:20:53.078Z,9.50
2022-11-22T02:24:05.218Z,9.10
2022-11-22T02:26:34.639Z,8.32
2022-11-22T02:29:06.348Z,7.28
2022-11-22T02:31:46.767Z,12.15
2022-11-22T02:34:16.183Z,8.18
2022-11-22T02:36:53.297Z,14.70
2022-11-22T02:39:26.007Z,7.28
2022-11-22T02:41:56.890Z,6.78
2022-11-22T02:44:26.615Z,7.95
2022-11-22T02:46:56.381Z,8.13
2022-11-22T02:49:26.847Z,8.98
2022-11-22T02:51:56.849Z,11.55
2022-11-22T02:54:26.792Z,8.90
2022-11-22T02:56:56.263Z,8.77
2022-11-22T02:59:26.153Z,10.25
2022-11-22T03:02:01.677Z,6.50
2022-11-22T03:04:33.111Z,9.70
2022-11-22T03:07:02.972Z,9.65
2022-11-22T03:09:33.617Z,6.88
2022-11-22T03:12:03.700Z,12.63
2022-11-22T03:14:33.285Z,9.25
2022-11-22T03:17:03.097Z,8.18
2022-11-22T03:19:33.158Z,7.70
2022-11-22T03:22:03.184Z,9.05
2022-11-22T03:24:33.039Z,10.40
2022-11-22T03:27:03.283Z,9.80
2022-11-22T03:29:33.457Z,6.32
2022-11-22T03:32:06.121Z,6.85
2022-11-22T03:34:35.689Z,7.70
2022-11-22T03:37:05.615Z,8.80
2022-11-22T03:39:35.542Z,9.25
2022-11-22T03:42:05.232Z,6.50
2022-11-22T03:44:34.654Z,6.68
2022-11-22T03:47:04.000Z,6.97
2022-11-22T03:49:33.519Z,8.18
2022-11-22T03:52:02.984Z,12.35
2022-11-22T03:54:32.435Z,9.43
2022-11-22T03:57:02.378Z,9.70
2022-11-22T03:59:32.454Z,11.75
2022-11-22T04:02:02.695Z,9.40
2022-11-22T04:04:32.638Z,6.45
2022-11-22T04:07:02.260Z,7.63
2022-11-22T04:09:35.138Z,9.63
2022-11-22T04:12:04.820Z,8.02
2022-11-22T04:14:52.289Z,6.50
2022-11-22T04:17:41.444Z,8.52
2022-11-22T04:20:37.401Z,8.57
2022-11-22T04:23:11.965Z,7.05
2022-11-22T04:25:43.571Z,8.05
2022-11-22T04:28:13.795Z,8.43
2022-11-22T04:31:01.465Z,10.38
2022-11-22T04:33:30.871Z,8.70
2022-11-22T04:36:00.684Z,12.50
2022-11-22T04:38:30.176Z,12.48
2022-11-22T04:40:59.576Z,11.98
2022-11-22T04:43:48.752Z,14.18
2022-11-22T04:46:20.789Z,12.82
2022-11-22T04:48:50.700Z,11.00
2022-11-22T04:51:38.270Z,10.80
2022-11-22T04:54:07.708Z,13.40
2022-11-22T04:56:37.125Z,13.77
2022-11-22T04:59:06.438Z,13.25
2022-11-22T05:01:35.845Z,8.15
2022-11-22T05:04:05.345Z,10.00
2022-11-22T05:06:34.694Z,12.05
2022-11-22T05:09:04.096Z,9.07
2022-11-22T05:11:33.560Z,11.20
2022-11-22T05:14:03.013Z,10.38
2022-11-22T05:16:32.414Z,11.98
2022-11-22T05:19:02.268Z,11.85
2022-11-22T05:21:31.833Z,11.82
2022-11-22T05:24:01.613Z,10.95
2022-11-22T05:26:33.437Z,13.40
2022-11-22T05:29:08.201Z,10.00
2022-11-22T05:31:38.906Z,11.57
2022-11-22T05:34:08.349Z,12.57
2022-11-22T05:36:37.825Z,10.02
2022-11-22T05:39:07.151Z,11.73
2022-11-22T05:41:36.631Z,11.18
2022-11-22T05:44:06.565Z,12.35
2022-11-22T05:46:36.554Z,9.65
2022-11-22T05:49:06.472Z,10.82
2022-11-22T05:51:36.464Z,10.35
2022-11-22T05:54:06.490Z,10.38
2022-11-22T05:56:36.471Z,9.75
2022-11-22T05:59:06.409Z,9.35
2022-11-22T06:01:36.715Z,11.40
2022-11-22T06:04:06.935Z,9.20
2022-11-22T06:06:36.427Z,9.48
2022-11-22T06:09:05.839Z,9.95
2022-11-22T06:11:36.320Z,9.43
2022-11-22T06:14:05.893Z,8.10
2022-11-22T06:16:35.345Z,7.63
2022-11-22T06:19:05.279Z,10.10
2022-11-22T06:21:37.575Z,9.20
2022-11-22T06:24:07.872Z,8.02
2022-11-22T06:26:39.489Z,10.40
2022-11-22T06:29:09.553Z,9.85
2022-11-22T06:31:39.402Z,11.73
2022-11-22T06:34:08.994Z,12.38
2022-11-22T06:36:40.510Z,10.02
2022-11-22T06:39:09.979Z,13.23
2022-11-22T06:41:40.471Z,9.63
2022-11-22T06:44:11.076Z,10.25
2022-11-22T06:46:41.107Z,8.73
2022-11-22T06:49:10.663Z,8.98
2022-11-22T06:51:40.533Z,11.60
2022-11-22T06:54:12.994Z,7.30
2022-11-22T06:56:44.626Z,10.52
2022-11-22T06:59:14.704Z,8.43
2022-11-22T07:01:44.290Z,10.90
2022-11-22T07:04:13.737Z,9.75
2022-11-22T07:06:44.826Z,9.85
2022-11-22T07:09:14.820Z,8.95
2022-11-22T07:11:44.688Z,15.23
2022-11-22T07:14:14.584Z,11.35
2022-11-22T07:16:44.513Z,9.82
2022-11-22T07:19:14.424Z,12.30
2022-11-22T07:21:43.949Z,10.27
2022-11-22T07:24:13.443Z,9.77
2022-11-22T07:26:42.782Z,8.27
2022-11-22T07:29:12.978Z,11.45
2022-11-22T07:31:43.107Z,11.68
2022-11-22T07:34:13.059Z,11.48
2022-11-22T07:36:42.582Z,10.80
2022-11-22T07:39:12.982Z,10.20
2022-11-22T07:41:42.440Z,12.60
2022-11-22T07:44:12.340Z,12.25
2022-11-22T07:46:42.828Z,12.73
2022-11-22T07:49:12.815Z,11.05
2022-11-22T07:51:42.241Z,16.02
2022-11-22T07:54:14.785Z,14.73
2022-11-22T07:56:44.738Z,15.43
2022-11-22T07:59:14.250Z,10.68
2022-11-22T08:01:44.291Z,10.52
2022-11-22T08:04:14.424Z,13.38
2022-11-22T08:06:45.348Z,13.02
2022-11-22T08:09:15.402Z,10.82
2022-11-22T08:11:45.423Z,15.45
2022-11-22T08:14:15.514Z,12.93
2022-11-22T08:16:45.164Z,11.95
2022-11-22T08:19:18.599Z,11.98
2022-11-22T08:24:18.406Z,14.23
2022-11-22T08:26:47.899Z,12.35
2022-11-22T08:29:17.311Z,13.88
2022-11-22T08:31:47.286Z,15.88
2022-11-22T08:34:17.390Z,13.75
2022-11-22T08:36:46.948Z,69.45
2022-11-22T08:39:16.447Z,52.35
2022-11-22T08:41:46.247Z,50.38
2022-11-22T08:44:16.210Z,44.72
2022-11-22T08:46:45.768Z,44.95
2022-11-22T08:49:15.610Z,42.30
2022-11-22T08:51:46.372Z,46.28
2022-11-22T08:54:17.029Z,42.40
2022-11-22T08:56:46.735Z,44.58
2022-11-22T08:59:16.919Z,47.70
2022-11-22T09:01:47.175Z,39.22
2022-11-22T09:04:18.925Z,38.80
2022-11-22T09:09:40.506Z,43.85
2022-11-22T09:12:10.286Z,42.67
2022-11-22T09:14:39.835Z,43.25
2022-11-22T09:17:13.171Z,40.15
2022-11-22T09:19:46.432Z,36.70
2022-11-22T09:22:16.303Z,38.83
2022-11-22T09:24:45.928Z,33.85
2022-11-22T09:27:16.249Z,37.70
2022-11-22T09:29:45.956Z,34.63
2022-11-22T09:32:19.585Z,32.85
2022-11-22T09:34:49.320Z,37.83
2022-11-22T09:37:20.619Z,59.97
2022-11-22T09:39:51.699Z,58.67
2022-11-22T09:42:21.727Z,55.40
2022-11-22T09:45:03.624Z,53.47
2022-11-22T09:47:54.052Z,48.42
2022-11-22T09:50:34.736Z,49.67
2022-11-22T09:53:09.611Z,55.03
2022-11-22T09:55:42.366Z,48.33
2022-11-22T09:58:16.324Z,48.75
2022-11-22T10:00:51.804Z,46.38
2022-11-22T10:03:43.656Z,41.17
2022-11-22T10:06:22.662Z,31.58
2022-11-22T10:09:13.426Z,29.95
2022-11-22T10:11:58.116Z,36.05
2022-11-22T10:14:28.026Z,28.95
2022-11-22T10:17:15.459Z,32.35
2022-11-22T10:19:52.307Z,26.85
2022-11-22T10:22:21.812Z,23.42
2022-11-22T10:24:51.234Z,22.63
2022-11-22T10:27:21.133Z,23.80
2022-11-22T10:30:06.736Z,24.90
2022-11-22T10:32:50.536Z,19.45
2022-11-22T10:38:14.779Z,21.10
2022-11-22T10:40:44.416Z,22.85
2022-11-22T10:43:30.468Z,19.85
2022-11-22T10:46:20.560Z,25.05
2022-11-22T10:49:13.017Z,21.17
2022-11-22T10:52:03.419Z,20.10
2022-11-22T10:55:07.129Z,20.90
2022-11-22T10:57:43.038Z,16.63
2022-11-22T11:00:21.181Z,17.70
2022-11-22T11:03:18.533Z,18.10
2022-11-22T11:12:21.039Z,17.02
2022-11-22T11:14:52.974Z,16.10
2022-11-22T11:17:29.501Z,15.07
2022-11-22T11:20:01.432Z,15.50
2022-11-22T11:23:06.284Z,17.42
2022-11-22T11:25:31.922Z,16.27
2022-11-22T11:28:12.730Z,15.85
2022-11-22T11:30:54.146Z,14.55
2022-11-22T11:33:32.932Z,13.77
2022-11-22T11:36:10.008Z,15.82
2022-11-22T11:38:43.132Z,16.00
2022-11-22T11:41:33.923Z,13.82
2022-11-22T11:44:06.187Z,14.73
2022-11-22T11:46:42.341Z,15.02
2022-11-22T11:49:12.098Z,14.35
2022-11-22T11:52:00.986Z,13.25
2022-11-22T11:54:39.519Z,15.40
2022-11-22T11:57:38.293Z,13.15
2022-11-22T12:00:17.094Z,15.20
2022-11-22T12:02:47.204Z,16.40
2022-11-22T12:05:17.152Z,13.23
2022-11-22T12:07:50.632Z,13.93
2022-11-22T12:13:32.238Z,13.00
2022-11-22T12:16:32.091Z,13.57
2022-11-22T12:19:09.371Z,14.52
2022-11-22T12:22:02.835Z,13.75
2022-11-22T12:25:31.129Z,12.23
2022-11-22T12:27:51.990Z,12.88
2022-11-22T12:30:23.144Z,11.95
2022-11-22T12:33:00.734Z,16.10
2022-11-22T12:35:42.607Z,15.97
2022-11-22T12:38:40.665Z,12.00
2022-11-22T12:41:13.142Z,14.52
2022-11-22T12:43:54.023Z,10.65
2022-11-22T12:46:33.697Z,16.50
2022-11-22T12:49:23.467Z,11.50
2022-11-22T12:52:18.697Z,13.52
2022-11-22T12:55:25.272Z,12.13
2022-11-22T12:58:11.321Z,15.07
2022-11-22T13:01:00.203Z,11.45
2022-11-22T13:03:33.153Z,11.13
2022-11-22T13:06:02.659Z,12.32
2022-11-22T13:08:32.628Z,11.48
2022-11-22T13:11:49.170Z,12.50
2022-11-22T13:14:29.764Z,12.55
2022-11-22T13:16:59.810Z,11.90
2022-11-22T13:19:29.275Z,13.30
2022-11-22T13:22:18.070Z,13.05
2022-11-22T13:25:00.152Z,14.30
2022-11-22T13:27:37.544Z,13.93
2022-11-22T13:30:07.384Z,11.85
2022-11-22T13:32:37.112Z,11.02
2022-11-22T13:35:15.501Z,14.40
2022-11-22T13:38:11.187Z,11.45
2022-11-22T13:40:48.248Z,14.20
2022-11-22T13:43:22.254Z,11.45
2022-11-22T13:46:06.135Z,12.85
2022-11-22T13:48:42.091Z,11.18
2022-11-22T13:51:13.062Z,18.58
2022-11-22T13:53:46.853Z,13.05
2022-11-22T13:56:22.929Z,12.73
2022-11-22T13:59:06.751Z,14.57
2022-11-22T14:04:18.483Z,13.27
2022-11-22T14:06:49.485Z,12.77
2022-11-22T14:09:37.629Z,13.07
2022-11-22T14:12:13.299Z,14.13
2022-11-22T14:14:42.865Z,12.57
2022-11-22T14:17:41.506Z,11.88
2022-11-22T14:20:34.064Z,12.30
2022-11-22T14:23:03.475Z,13.95
2022-11-22T14:25:44.654Z,13.07
2022-11-22T14:28:32.659Z,12.30
2022-11-22T14:31:02.063Z,12.65
2022-11-22T14:33:32.013Z,13.20
2022-11-22T14:36:12.152Z,13.68
2022-11-22T14:38:43.479Z,13.45
2022-11-22T14:41:28.397Z,13.18
2022-11-22T14:44:23.989Z,13.35
2022-11-22T14:46:59.104Z,13.00
2022-11-22T14:49:29.454Z,21.83
2022-11-22T14:51:59.761Z,13.73
2022-11-22T14:54:42.094Z,13.00
2022-11-22T14:57:12.031Z,13.65
2022-11-22T14:59:53.444Z,14.35
2022-11-22T15:02:40.579Z,13.52
2022-11-22T15:09:11.955Z,11.30
2022-11-22T15:09:23.400Z,13.75
2022-11-22T15:11:40.934Z,14.45
2022-11-22T15:14:47.315Z,13.07
2022-11-22T15:58:11.320Z,26.83
2022-11-22T16:00:40.784Z,22.80
2022-11-22T16:03:21.618Z,18.48
2022-11-22T16:06:10.273Z,20.67
2022-11-22T16:08:41.214Z,18.33
2022-11-22T16:11:23.128Z,21.55
2022-11-22T16:13:52.623Z,20.90
2022-11-22T16:16:35.475Z,23.05
2022-11-22T16:19:24.708Z,18.95
2022-11-22T16:21:58.778Z,20.13
2022-11-22T16:24:29.909Z,17.40
2022-11-22T16:27:07.250Z,24.02
2022-11-22T16:29:38.301Z,18.77
2022-11-22T16:32:15.429Z,19.90
2022-11-22T16:34:46.918Z,19.27
2022-11-22T16:37:34.487Z,26.02
2022-11-22T16:40:08.245Z,23.75
2022-11-22T16:42:42.479Z,24.48
2022-11-22T16:45:21.825Z,20.23
2022-11-22T16:48:03.906Z,18.80
2022-11-22T16:50:41.632Z,18.20
2022-11-22T16:53:13.142Z,21.73
2022-11-22T16:55:42.846Z,18.48
2022-11-22T16:58:17.530Z,19.35
2022-11-22T17:00:47.403Z,19.50
2022-11-22T17:03:25.319Z,19.65
2022-11-22T17:05:55.189Z,20.35
2022-11-22T17:08:25.081Z,18.15
2022-11-22T17:10:55.127Z,18.25
2022-11-22T17:13:26.488Z,18.73
2022-11-22T17:15:56.460Z,19.85
2022-11-22T17:18:26.333Z,19.38
2022-11-22T17:20:55.875Z,18.85
2022-11-22T17:23:29.866Z,25.50
2022-11-22T17:25:59.937Z,18.15
2022-11-22T17:28:29.984Z,20.42
2022-11-22T17:31:04.009Z,16.30
2022-11-22T17:33:33.921Z,17.98
2022-11-22T17:36:03.841Z,17.65
2022-11-22T17:38:33.827Z,18.10
2022-11-22T17:41:03.816Z,17.42
2022-11-22T17:43:33.313Z,19.42
2022-11-22T17:46:02.722Z,19.40
2022-11-22T17:48:32.580Z,16.23
2022-11-22T17:51:10.269Z,16.52
2022-11-22T17:53:40.699Z,17.30
2022-11-22T17:56:11.960Z,17.40
2022-11-22T17:58:42.169Z,21.30
2022-11-22T18:01:14.027Z,18.02
2022-11-22T18:03:43.736Z,18.75
2022-11-22T18:06:13.466Z,15.98
2022-11-22T18:08:46.889Z,17.35
2022-11-22T18:11:17.177Z,18.92
2022-11-22T18:13:47.407Z,17.30
2022-11-22T18:16:18.100Z,16.67
2022-11-22T18:19:03.070Z,15.40
2022-11-22T18:21:35.547Z,15.93
2022-11-22T18:24:05.602Z,18.15
2022-11-22T18:26:39.876Z,16.17
2022-11-22T18:29:41.221Z,18.63
2022-11-22T18:32:01.465Z,18.25
2022-11-22T18:34:30.976Z,16.48
2022-11-22T18:37:03.616Z,19.02
2022-11-22T18:39:38.944Z,15.93
2022-11-22T18:42:18.343Z,17.08
2022-11-22T18:44:47.792Z,15.10
2022-11-22T18:47:17.830Z,17.08
2022-11-22T18:49:48.488Z,17.00
2022-11-22T18:52:18.394Z,18.50
2022-11-22T18:54:48.041Z,20.98
2022-11-22T18:57:17.779Z,22.13
2022-11-22T18:59:47.566Z,14.70
2022-11-22T19:02:18.041Z,17.15
2022-11-22T19:04:48.247Z,15.57
2022-11-22T19:07:17.710Z,16.42
2022-11-22T19:09:47.074Z,16.88
2022-11-22T19:12:17.610Z,15.80
2022-11-22T19:14:47.557Z,15.48
2022-11-22T19:17:21.680Z,19.77
2022-11-22T19:19:59.724Z,15.43
2022-11-22T19:22:31.834Z,15.80
2022-11-22T19:25:01.754Z,15.73
2022-11-22T19:27:32.128Z,12.98
2022-11-22T19:30:02.112Z,16.95
2022-11-22T19:32:32.273Z,17.88
2022-11-22T19:35:02.302Z,18.38
2022-11-22T19:37:33.368Z,20.73
2022-11-22T19:40:02.785Z,18.00
2022-11-22T19:42:34.666Z,16.33
2022-11-22T19:45:04.175Z,14.25
2022-11-22T19:47:33.725Z,18.52
2022-11-22T19:50:03.531Z,13.68
2022-11-22T19:52:33.918Z,14.52
2022-11-22T19:55:03.469Z,15.23
2022-11-22T19:57:33.262Z,16.55
2022-11-22T20:00:02.947Z,16.55
2022-11-22T20:02:33.888Z,16.13
2022-11-22T20:05:03.656Z,14.77
2022-11-22T20:07:34.008Z,17.70
2022-11-22T20:10:05.288Z,14.20
2022-11-22T20:12:35.055Z,16.00
2022-11-22T20:15:04.557Z,13.07
2022-11-22T20:17:33.956Z,12.57
2022-11-22T20:20:05.671Z,15.68
2022-11-22T20:22:35.695Z,14.05
2022-11-22T20:25:06.611Z,16.50
2022-11-22T20:27:36.566Z,12.68
2022-11-22T20:30:06.801Z,15.50
2022-11-22T20:32:36.646Z,12.38
2022-11-22T20:35:06.405Z,16.88
2022-11-22T20:37:36.616Z,13.52
2022-11-22T20:40:06.629Z,12.90
2022-11-22T20:42:36.985Z,12.55
2022-11-22T20:45:09.702Z,13.68
2022-11-22T20:47:39.623Z,14.15
2022-11-22T20:50:10.263Z,13.07
2022-11-22T20:52:39.731Z,11.88
2022-11-22T20:55:09.651Z,13.57
2022-11-22T20:57:39.267Z,12.75
2022-11-22T21:00:10.958Z,17.08
2022-11-22T21:02:42.291Z,12.35
2022-11-22T21:05:13.289Z,14.05
2022-11-22T21:07:42.826Z,13.02
2022-11-22T21:10:12.714Z,11.82
2022-11-22T21:12:42.395Z,12.68
2022-11-22T21:15:12.286Z,12.45
2022-11-22T21:17:56.069Z,10.30
2022-11-22T21:20:34.549Z,10.95
2022-11-22T21:23:04.340Z,11.43
2022-11-22T21:25:34.289Z,11.25
2022-11-22T21:28:03.711Z,12.25
2022-11-22T21:30:33.074Z,14.68
2022-11-22T21:33:03.542Z,11.82
2022-11-22T21:35:33.410Z,11.23
2022-11-22T21:38:03.271Z,13.88
2022-11-22T21:40:32.729Z,11.90
2022-11-22T21:43:02.241Z,10.95
2022-11-22T21:45:32.012Z,12.35
2022-11-22T21:48:01.519Z,9.32
2022-11-22T21:50:31.513Z,8.98
2022-11-22T21:53:01.001Z,8.90
2022-11-22T21:55:30.356Z,11.20
2022-11-22T21:58:00.176Z,10.65
2022-11-22T22:00:29.687Z,10.95
2022-11-22T22:02:59.982Z,9.73
2022-11-22T22:05:29.449Z,10.73
2022-11-22T22:07:59.336Z,9.82
2022-11-22T22:10:29.249Z,10.38
2022-11-22T22:12:59.667Z,10.98
2022-11-22T22:15:29.144Z,9.85
2022-11-22T22:17:59.007Z,9.38
2022-11-22T22:20:28.947Z,11.45
2022-11-22T22:22:58.936Z,9.80
2022-11-22T22:25:28.385Z,9.43
2022-11-22T22:27:59.118Z,11.13
2022-11-22T22:30:29.542Z,8.57
2022-11-22T22:33:00.198Z,9.98
2022-11-22T22:35:29.768Z,10.20
2022-11-22T22:38:02.184Z,13.90
2022-11-22T22:40:31.698Z,10.40
2022-11-22T22:43:01.581Z,8.80
2022-11-22T22:45:31.738Z,10.68
2022-11-22T22:48:01.693Z,9.80
2022-11-22T22:50:31.666Z,8.00
2022-11-22T22:53:01.156Z,7.90
2022-11-22T22:55:30.647Z,10.60
2022-11-22T22:58:03.298Z,7.80
2022-11-22T23:00:33.124Z,10.13
2022-11-22T23:03:02.955Z,8.57
2022-11-22T23:05:32.783Z,7.80
2022-11-22T23:08:02.291Z,9.20
2022-11-22T23:10:31.643Z,7.18
2022-11-22T23:13:01.496Z,7.95
2022-11-22T23:15:51.102Z,7.93
2022-11-22T23:18:21.086Z,7.53
2022-11-22T23:20:51.080Z,8.48
2022-11-22T23:23:20.960Z,9.65
2022-11-22T23:25:50.441Z,8.23
2022-11-22T23:28:20.284Z,7.93
2022-11-22T23:30:50.288Z,11.15
2022-11-22T23:33:19.713Z,9.25
2022-11-22T23:35:49.472Z,8.77
2022-11-22T23:38:18.917Z,8.57
2022-11-22T23:40:55.079Z,11.98
2022-11-22T23:43:25.242Z,9.82
2022-11-22T23:45:55.865Z,8.18
2022-11-22T23:48:26.076Z,8.15
2022-11-22T23:50:56.190Z,9.68
2022-11-22T23:53:25.764Z,9.93
2022-11-22T23:55:55.385Z,7.63
2022-11-22T23:58:25.254Z,8.02
